createdAt,value
2018-03-01T00:01:28.550Z,57.70
2018-03-01T00:03:56.117Z,57.71
2018-03-01T00:06:23.665Z,58.14
2018-03-01T00:08:51.547Z,58.15
2018-03-01T00:11:19.096Z,58.20
2018-03-01T00:13:46.974Z,58.15
2018-03-01T00:16:14.638Z,58.14
2018-03-01T00:18:42.185Z,58.41
2018-03-01T00:21:09.738Z,58.75
2018-03-01T00:23:37.301Z,58.90
2018-03-01T00:26:04.849Z,59.01
2018-03-01T00:28:32.401Z,59.41
2018-03-01T00:30:59.952Z,59.39
2018-03-01T00:33:27.489Z,59.29
2018-03-01T00:35:55.038Z,59.45
2018-03-01T00:38:22.675Z,59.55
2018-03-01T00:40:50.224Z,59.01
2018-03-01T00:43:17.789Z,59.60
2018-03-01T00:45:45.373Z,59.42
2018-03-01T00:48:12.934Z,59.69
2018-03-01T00:50:40.489Z,59.52
2018-03-01T00:53:08.036Z,59.65
2018-03-01T00:55:35.589Z,59.56
2018-03-01T00:58:03.148Z,59.96
2018-03-01T01:00:30.704Z,59.66
2018-03-01T01:02:58.270Z,59.37
2018-03-01T01:05:25.844Z,59.42
2018-03-01T01:07:53.445Z,59.86
2018-03-01T01:10:21.010Z,59.81
2018-03-01T01:12:48.570Z,59.88
2018-03-01T01:15:16.112Z,59.66
2018-03-01T01:17:43.658Z,60.12
2018-03-01T01:20:11.204Z,60.19
2018-03-01T01:22:38.755Z,60.21
2018-03-01T01:25:06.314Z,60.78
2018-03-01T01:27:33.873Z,60.55
2018-03-01T01:30:01.459Z,60.97
2018-03-01T01:32:29.015Z,60.71
2018-03-01T01:34:56.561Z,61.00
2018-03-01T01:37:24.105Z,61.05
2018-03-01T01:39:51.671Z,60.85
2018-03-01T01:42:19.229Z,60.90
2018-03-01T01:44:46.794Z,60.68
2018-03-01T01:47:14.346Z,60.65
2018-03-01T01:49:41.904Z,60.84
2018-03-01T01:52:10.079Z,61.01
2018-03-01T01:54:37.632Z,61.42
2018-03-01T01:57:05.187Z,61.58
2018-03-01T01:59:32.741Z,61.48
2018-03-01T02:02:00.309Z,61.64
2018-03-01T02:04:27.851Z,61.49
2018-03-01T02:06:55.392Z,61.75
2018-03-01T02:09:22.952Z,62.04
2018-03-01T02:11:50.505Z,62.04
2018-03-01T02:14:18.053Z,61.83
2018-03-01T02:16:45.606Z,61.75
2018-03-01T02:19:13.160Z,62.31
2018-03-01T02:21:40.708Z,62.07
2018-03-01T02:24:08.257Z,62.16
2018-03-01T02:26:35.802Z,62.47
2018-03-01T02:29:03.373Z,62.14
2018-03-01T02:31:30.920Z,62.02
2018-03-01T02:33:58.511Z,62.37
2018-03-01T02:36:32.687Z,62.48
2018-03-01T02:39:00.237Z,62.70
2018-03-01T02:41:27.784Z,62.92
2018-03-01T02:43:55.335Z,62.71
2018-03-01T02:46:23.221Z,63.01
2018-03-01T02:48:50.778Z,62.79
2018-03-01T02:51:18.645Z,63.62
2018-03-01T02:53:46.185Z,63.74
2018-03-01T02:56:13.738Z,63.77
2018-03-01T02:58:41.290Z,64.03
2018-03-01T03:01:08.838Z,64.16
2018-03-01T03:03:36.398Z,64.38
2018-03-01T03:06:03.946Z,64.81
2018-03-01T03:08:31.500Z,64.79
2018-03-01T03:10:59.067Z,64.65
2018-03-01T03:13:26.617Z,64.85
2018-03-01T03:15:54.862Z,64.75
2018-03-01T03:18:22.420Z,65.33
2018-03-01T03:20:49.969Z,65.61
2018-03-01T03:23:17.504Z,65.61
2018-03-01T03:25:45.055Z,65.55
2018-03-01T03:28:12.606Z,65.58
2018-03-01T03:30:40.155Z,66.23
2018-03-01T03:33:07.702Z,66.41
2018-03-01T03:35:35.244Z,65.87
2018-03-01T03:38:02.800Z,66.26
2018-03-01T03:40:30.349Z,66.21
2018-03-01T03:42:57.892Z,66.28
2018-03-01T03:45:25.432Z,66.59
2018-03-01T03:47:52.988Z,66.89
2018-03-01T03:50:20.542Z,66.82
2018-03-01T03:52:48.099Z,67.28
2018-03-01T03:55:15.683Z,67.13
2018-03-01T03:57:43.223Z,67.50
2018-03-01T04:00:10.790Z,67.54
2018-03-01T04:02:38.328Z,67.66
2018-03-01T04:05:05.877Z,68.06
2018-03-01T04:07:33.421Z,67.92
2018-03-01T04:10:00.984Z,68.20
2018-03-01T04:12:28.542Z,67.81
2018-03-01T04:14:56.103Z,67.90
2018-03-01T04:17:23.645Z,67.66
2018-03-01T04:19:51.183Z,68.68
2018-03-01T04:22:18.726Z,68.68
2018-03-01T04:24:46.466Z,68.43
2018-03-01T04:27:14.030Z,68.36
2018-03-01T04:29:41.572Z,69.06
2018-03-01T04:32:09.128Z,68.76
2018-03-01T04:34:36.669Z,69.10
2018-03-01T04:37:04.230Z,69.26
2018-03-01T04:39:31.757Z,69.31
2018-03-01T04:41:59.290Z,69.51
2018-03-01T04:44:26.819Z,69.58
2018-03-01T04:46:54.348Z,69.97
2018-03-01T04:49:21.863Z,70.07
2018-03-01T04:51:49.395Z,69.97
2018-03-01T04:54:16.916Z,69.59
2018-03-01T04:56:44.444Z,70.19
2018-03-01T04:59:11.957Z,70.39
2018-03-01T05:01:39.480Z,70.45
2018-03-01T05:04:07.008Z,70.47
2018-03-01T05:06:34.544Z,70.28
2018-03-01T05:09:02.073Z,70.43
2018-03-01T05:11:29.671Z,70.23
2018-03-01T05:13:57.185Z,70.68
2018-03-01T05:16:24.713Z,70.62
2018-03-01T05:18:52.234Z,70.51
2018-03-01T05:21:20.757Z,70.72
2018-03-01T05:23:48.286Z,70.67
2018-03-01T05:26:16.405Z,71.10
2018-03-01T05:28:43.922Z,70.80
2018-03-01T05:31:11.448Z,71.18
2018-03-01T05:33:38.966Z,70.92
2018-03-01T05:36:06.494Z,71.21
2018-03-01T05:38:34.020Z,71.25
2018-03-01T05:41:01.546Z,71.39
2018-03-01T05:43:29.078Z,71.11
2018-03-01T05:45:56.605Z,71.34
2018-03-01T05:48:24.142Z,70.83
2018-03-01T05:50:51.661Z,70.99
2018-03-01T05:53:19.180Z,71.13
2018-03-01T05:55:46.701Z,71.56
2018-03-01T05:58:14.229Z,71.53
2018-03-01T06:00:41.757Z,71.11
2018-03-01T06:03:09.319Z,70.86
2018-03-01T06:05:36.837Z,71.02
2018-03-01T06:08:04.372Z,70.74
2018-03-01T06:10:31.936Z,70.79
2018-03-01T06:13:00.241Z,70.64
2018-03-01T06:15:27.789Z,70.66
2018-03-01T06:17:55.333Z,70.51
2018-03-01T06:20:22.845Z,70.06
2018-03-01T06:22:50.356Z,69.69
2018-03-01T06:25:17.888Z,70.00
2018-03-01T06:27:45.401Z,69.12
2018-03-01T06:30:12.913Z,69.30
2018-03-01T06:32:40.430Z,68.87
2018-03-01T06:35:07.957Z,69.65
2018-03-01T06:37:35.489Z,70.22
2018-03-01T06:40:03.014Z,69.89
2018-03-01T06:42:30.534Z,68.91
2018-03-01T06:44:58.056Z,69.49
2018-03-01T06:47:25.577Z,69.99
2018-03-01T06:49:53.092Z,69.88
2018-03-01T06:52:20.621Z,69.71
2018-03-01T06:54:48.148Z,69.46
2018-03-01T06:57:15.662Z,69.39
2018-03-01T06:59:43.683Z,69.01
2018-03-01T07:02:11.195Z,68.22
2018-03-01T07:04:38.718Z,67.87
2018-03-01T07:07:06.241Z,67.73
2018-03-01T07:09:33.758Z,68.14
2018-03-01T07:12:01.282Z,68.20
2018-03-01T07:14:28.808Z,67.78
2018-03-01T07:16:56.349Z,67.92
2018-03-01T07:19:23.878Z,67.58
2018-03-01T07:21:51.406Z,67.41
2018-03-01T07:24:19.461Z,66.59
2018-03-01T07:26:46.977Z,65.96
2018-03-01T07:29:14.497Z,65.47
2018-03-01T07:31:42.262Z,72.99
2018-03-01T07:34:09.794Z,65.17
2018-03-01T07:36:37.332Z,64.19
2018-03-01T07:39:04.864Z,63.52
2018-03-01T07:41:33.249Z,62.76
2018-03-01T07:44:00.809Z,61.85
2018-03-01T07:46:28.393Z,60.76
2018-03-01T07:48:55.914Z,57.69
2018-03-01T07:51:23.435Z,56.17
2018-03-01T07:53:52.731Z,54.59
2018-03-01T07:56:21.108Z,54.94
2018-03-01T07:58:49.389Z,52.68
2018-03-01T08:01:16.922Z,52.17
2018-03-01T08:03:45.046Z,52.08
2018-03-01T08:06:13.163Z,51.77
2018-03-01T08:08:40.697Z,50.52
2018-03-01T08:11:08.231Z,45.02
2018-03-01T08:13:35.745Z,45.14
2018-03-01T08:16:03.272Z,49.30
2018-03-01T08:18:30.788Z,48.68
2018-03-01T08:20:58.318Z,48.32
2018-03-01T08:23:25.840Z,47.83
2018-03-01T08:25:53.833Z,47.56
2018-03-01T08:28:21.361Z,46.19
2018-03-01T08:30:48.876Z,46.65
2018-03-01T08:33:16.393Z,45.45
2018-03-01T08:35:43.913Z,44.80
2018-03-01T08:38:11.461Z,43.09
2018-03-01T08:40:38.987Z,44.52
2018-03-01T08:43:06.520Z,40.95
2018-03-01T08:45:34.065Z,40.10
2018-03-01T08:48:01.595Z,41.01
2018-03-01T08:50:29.126Z,43.35
2018-03-01T08:52:56.763Z,40.08
2018-03-01T08:55:24.320Z,36.13
2018-03-01T08:57:51.852Z,38.45
2018-03-01T09:00:19.369Z,39.72
2018-03-01T09:02:47.814Z,42.01
2018-03-01T09:05:15.355Z,38.00
2018-03-01T09:07:42.880Z,38.52
2018-03-01T09:10:10.424Z,38.95
2018-03-01T09:12:37.956Z,35.03
2018-03-01T09:15:05.489Z,33.87
2018-03-01T09:17:33.014Z,35.09
2018-03-01T09:20:00.533Z,35.62
2018-03-01T09:22:28.105Z,32.60
2018-03-01T09:24:55.678Z,35.55
2018-03-01T09:27:23.210Z,38.74
2018-03-01T09:29:50.737Z,36.74
2018-03-01T09:32:18.264Z,35.21
2018-03-01T09:34:45.788Z,31.74
2018-03-01T09:37:13.404Z,35.42
2018-03-01T09:39:40.918Z,34.13
2018-03-01T09:42:08.443Z,31.63
2018-03-01T09:44:35.985Z,32.82
2018-03-01T09:47:03.500Z,32.05
2018-03-01T09:49:31.019Z,32.68
2018-03-01T09:51:58.538Z,31.79
2018-03-01T09:54:26.062Z,30.10
2018-03-01T09:56:53.578Z,33.64
2018-03-01T09:59:21.112Z,31.95
2018-03-01T10:01:48.630Z,29.13
2018-03-01T10:04:16.142Z,31.12
2018-03-01T10:06:43.661Z,33.98
2018-03-01T10:09:11.177Z,28.14
2018-03-01T10:11:38.738Z,31.06
2018-03-01T10:14:06.258Z,32.24
2018-03-01T10:16:33.770Z,29.33
2018-03-01T10:19:01.330Z,31.44
2018-03-01T10:21:28.874Z,36.38
2018-03-01T10:23:56.397Z,36.79
2018-03-01T10:26:23.921Z,39.65
2018-03-01T10:28:51.467Z,38.70
2018-03-01T10:31:18.990Z,43.86
2018-03-01T10:33:47.197Z,41.64
2018-03-01T10:36:14.736Z,42.27
2018-03-01T10:38:42.267Z,40.27
2018-03-01T10:41:09.782Z,40.43
2018-03-01T10:43:38.181Z,43.04
2018-03-01T10:46:05.702Z,45.67
2018-03-01T10:48:33.225Z,44.24
2018-03-01T10:51:01.586Z,43.03
2018-03-01T10:53:29.096Z,43.20
2018-03-01T10:55:56.613Z,44.45
2018-03-01T10:58:24.132Z,42.56
2018-03-01T11:00:57.192Z,44.65
2018-03-01T11:03:24.719Z,41.90
2018-03-01T11:05:53.242Z,46.68
2018-03-01T11:08:20.867Z,47.74
2018-03-01T11:10:48.385Z,46.84
2018-03-01T11:13:15.907Z,45.42
2018-03-01T11:15:43.427Z,47.14
2018-03-01T11:18:10.952Z,46.90
2018-03-01T11:20:38.486Z,46.79
2018-03-01T11:23:06.029Z,47.00
2018-03-01T11:25:33.550Z,46.42
2018-03-01T11:28:01.533Z,45.45
2018-03-01T11:30:29.769Z,47.32
2018-03-01T11:32:57.297Z,46.89
2018-03-01T11:35:24.825Z,44.40
2018-03-01T11:37:52.349Z,44.10
2018-03-01T11:40:19.873Z,44.05
2018-03-01T11:42:47.392Z,45.48
2018-03-01T11:45:14.911Z,45.46
2018-03-01T11:47:42.429Z,45.63
2018-03-01T11:50:09.945Z,45.79
2018-03-01T11:52:37.486Z,46.19
2018-03-01T11:55:05.091Z,45.94
2018-03-01T11:57:32.844Z,45.24
2018-03-01T12:00:00.403Z,44.66
2018-03-01T12:02:27.917Z,44.02
2018-03-01T12:04:55.444Z,43.62
2018-03-01T12:07:22.980Z,44.06
2018-03-01T12:09:50.505Z,44.45
2018-03-01T12:12:18.025Z,45.49
2018-03-01T12:14:45.555Z,44.68
2018-03-01T12:17:13.073Z,44.90
2018-03-01T12:19:40.600Z,45.60
2018-03-01T12:22:08.124Z,45.95
2018-03-01T12:24:35.645Z,44.48
2018-03-01T12:27:03.162Z,45.13
2018-03-01T12:29:30.678Z,44.87
2018-03-01T12:31:58.194Z,45.27
2018-03-01T12:34:25.734Z,44.84
2018-03-01T12:36:53.277Z,45.06
2018-03-01T12:39:20.877Z,44.97
2018-03-01T12:41:48.411Z,44.70
2018-03-01T12:44:15.934Z,44.91
2018-03-01T12:46:43.461Z,45.11
2018-03-01T12:49:11.007Z,44.45
2018-03-01T12:51:38.613Z,44.22
2018-03-01T12:54:06.502Z,44.64
2018-03-01T12:56:34.039Z,44.78
2018-03-01T12:59:01.569Z,44.56
2018-03-01T13:01:29.096Z,45.49
2018-03-01T13:03:56.626Z,45.30
2018-03-01T13:06:24.152Z,45.19
2018-03-01T13:08:52.426Z,45.61
2018-03-01T13:11:21.032Z,45.34
2018-03-01T13:13:48.557Z,45.02
2018-03-01T13:16:16.080Z,45.59
2018-03-01T13:18:43.652Z,45.13
2018-03-01T13:21:11.219Z,44.63
2018-03-01T13:23:38.752Z,44.54
2018-03-01T13:26:06.289Z,44.91
2018-03-01T13:28:33.804Z,45.07
2018-03-01T13:31:01.657Z,44.86
2018-03-01T13:33:33.679Z,44.04
2018-03-01T13:36:01.214Z,44.93
2018-03-01T13:38:28.745Z,45.27
2018-03-01T13:40:56.272Z,45.41
2018-03-01T13:43:24.551Z,45.30
2018-03-01T13:45:52.112Z,45.32
2018-03-01T13:48:19.637Z,45.41
2018-03-01T13:50:47.151Z,46.18
2018-03-01T13:53:15.162Z,45.53
2018-03-01T13:55:42.685Z,46.87
2018-03-01T13:58:10.210Z,46.06
2018-03-01T14:00:37.734Z,46.49
2018-03-01T14:03:05.258Z,46.55
2018-03-01T14:05:32.790Z,46.07
2018-03-01T14:08:00.305Z,46.00
2018-03-01T14:10:27.837Z,46.04
2018-03-01T14:13:10.257Z,46.02
2018-03-01T14:15:37.794Z,46.37
2018-03-01T14:18:05.672Z,45.93
2018-03-01T14:20:38.876Z,45.91
2018-03-01T14:23:12.404Z,46.00
2018-03-01T14:25:39.928Z,46.29
2018-03-01T14:28:10.018Z,46.42
2018-03-01T14:30:37.569Z,45.95
2018-03-01T14:33:05.090Z,46.18
2018-03-01T14:35:32.619Z,46.11
2018-03-01T14:38:01.026Z,46.43
2018-03-01T14:40:29.481Z,46.54
2018-03-01T14:42:57.009Z,46.37
2018-03-01T14:45:24.569Z,46.35
2018-03-01T14:47:52.085Z,46.51
2018-03-01T14:50:19.598Z,46.81
2018-03-01T14:52:47.109Z,46.49
2018-03-01T14:55:14.749Z,46.54
2018-03-01T14:57:42.299Z,46.24
2018-03-01T15:00:09.832Z,46.14
2018-03-01T15:02:37.349Z,46.89
2018-03-01T15:05:05.001Z,46.98
2018-03-01T15:07:32.533Z,47.04
2018-03-01T15:10:00.062Z,47.69
2018-03-01T15:12:27.588Z,47.18
2018-03-01T15:14:55.103Z,47.54
2018-03-01T15:17:22.631Z,47.52
2018-03-01T15:19:50.153Z,47.24
2018-03-01T15:22:17.666Z,47.61
2018-03-01T15:24:45.187Z,47.14
2018-03-01T15:27:12.705Z,46.91
2018-03-01T15:29:40.226Z,47.42
2018-03-01T15:32:07.745Z,47.53
2018-03-01T15:34:35.258Z,47.33
2018-03-01T15:37:02.774Z,48.06
2018-03-01T15:39:30.352Z,47.97
2018-03-01T15:41:57.842Z,48.29
2018-03-01T15:44:25.373Z,48.27
2018-03-01T15:46:52.894Z,48.31
2018-03-01T15:49:20.418Z,48.54
2018-03-01T15:51:48.013Z,48.47
2018-03-01T15:54:15.540Z,48.45
2018-03-01T15:56:43.058Z,48.67
2018-03-01T15:59:10.588Z,48.75
2018-03-01T16:01:38.123Z,48.88
2018-03-01T16:04:05.710Z,48.75
2018-03-01T16:06:33.562Z,48.92
2018-03-01T16:09:01.090Z,48.74
2018-03-01T16:11:28.627Z,49.28
2018-03-01T16:13:56.972Z,49.34
2018-03-01T16:16:24.498Z,49.43
2018-03-01T16:18:52.031Z,49.59
2018-03-01T16:21:19.558Z,49.37
2018-03-01T16:23:47.078Z,49.63
2018-03-01T16:26:14.610Z,49.75
2018-03-01T16:28:42.143Z,49.76
2018-03-01T16:31:09.682Z,49.89
2018-03-01T16:33:37.726Z,49.87
2018-03-01T16:36:06.074Z,50.03
2018-03-01T16:38:33.614Z,50.29
2018-03-01T16:41:01.136Z,50.44
2018-03-01T16:43:28.678Z,50.46
2018-03-01T16:45:56.205Z,50.71
2018-03-01T16:48:23.739Z,50.88
2018-03-01T16:50:52.113Z,50.74
2018-03-01T16:53:20.454Z,51.10
2018-03-01T16:55:47.977Z,51.29
2018-03-01T16:58:15.508Z,51.47
2018-03-01T17:00:43.034Z,51.15
2018-03-01T17:03:10.557Z,51.25
2018-03-01T17:05:38.070Z,51.39
2018-03-01T17:08:05.584Z,51.40
2018-03-01T17:10:33.114Z,51.33
2018-03-01T17:13:00.651Z,51.46
2018-03-01T17:15:28.178Z,51.49
2018-03-01T17:17:55.709Z,51.52
2018-03-01T17:20:23.240Z,51.47
2018-03-01T17:22:50.765Z,51.65
2018-03-01T17:25:18.288Z,51.92
2018-03-01T17:27:45.808Z,51.94
2018-03-01T17:30:13.320Z,52.02
2018-03-01T17:32:40.862Z,51.87
2018-03-01T17:35:08.384Z,51.89
2018-03-01T17:37:35.901Z,51.94
2018-03-01T17:40:03.422Z,51.89
2018-03-01T17:42:30.941Z,52.06
2018-03-01T17:44:58.699Z,51.81
2018-03-01T17:47:26.228Z,52.09
2018-03-01T17:49:53.747Z,52.12
2018-03-01T17:52:21.290Z,51.93
2018-03-01T17:54:48.807Z,52.05
2018-03-01T17:57:16.339Z,52.33
2018-03-01T17:59:43.861Z,52.48
2018-03-01T18:02:11.386Z,52.66
2018-03-01T18:04:38.909Z,52.78
2018-03-01T18:07:06.480Z,52.39
2018-03-01T18:09:34.003Z,52.57
2018-03-01T18:12:01.529Z,52.80
2018-03-01T18:14:29.059Z,52.89
2018-03-01T18:16:56.645Z,52.93
2018-03-01T18:19:24.191Z,52.87
2018-03-01T18:21:51.714Z,53.18
2018-03-01T18:24:19.241Z,53.12
2018-03-01T18:26:46.832Z,53.17
2018-03-01T18:29:14.361Z,53.18
2018-03-01T18:31:41.894Z,53.46
2018-03-01T18:34:09.424Z,53.51
2018-03-01T18:36:36.988Z,53.42
2018-03-01T18:39:04.505Z,53.60
2018-03-01T18:41:32.028Z,53.93
2018-03-01T18:43:59.577Z,54.15
2018-03-01T18:46:27.098Z,54.02
2018-03-01T18:48:55.490Z,53.96
2018-03-01T18:51:23.023Z,54.21
2018-03-01T18:53:50.899Z,54.17
2018-03-01T18:56:18.437Z,54.16
2018-03-01T18:58:46.493Z,54.35
2018-03-01T19:01:14.028Z,54.30
2018-03-01T19:03:41.556Z,54.35
2018-03-01T19:06:09.078Z,54.31
2018-03-01T19:08:36.608Z,54.56
2018-03-01T19:11:04.130Z,54.56
2018-03-01T19:13:31.646Z,54.68
2018-03-01T19:15:59.180Z,54.78
2018-03-01T19:18:26.776Z,55.04
2018-03-01T19:20:55.221Z,54.90
2018-03-01T19:23:22.805Z,54.80
2018-03-01T19:25:50.374Z,55.13
2018-03-01T19:28:17.920Z,55.16
2018-03-01T19:30:45.455Z,54.99
2018-03-01T19:33:12.985Z,55.03
2018-03-01T19:35:41.166Z,55.31
2018-03-01T19:38:08.714Z,55.18
2018-03-01T19:40:36.246Z,55.25
2018-03-01T19:43:03.823Z,55.64
2018-03-01T19:45:31.344Z,55.92
2018-03-01T19:47:58.876Z,55.75
2018-03-01T19:50:26.441Z,55.71
2018-03-01T19:52:53.938Z,55.80
2018-03-01T19:55:21.474Z,55.88
2018-03-01T19:57:49.044Z,55.93
2018-03-01T20:00:16.602Z,55.82
2018-03-01T20:02:44.134Z,56.25
2018-03-01T20:05:11.678Z,56.18
2018-03-01T20:07:39.193Z,56.38
2018-03-01T20:10:06.710Z,56.28
2018-03-01T20:12:34.272Z,56.49
2018-03-01T20:15:01.837Z,56.51
2018-03-01T20:17:29.329Z,56.29
2018-03-01T20:19:56.871Z,56.86
2018-03-01T20:22:24.425Z,57.28
2018-03-01T20:24:51.951Z,57.17
2018-03-01T20:27:19.472Z,57.08
2018-03-01T20:29:47.042Z,57.01
2018-03-01T20:32:14.571Z,57.16
2018-03-01T20:34:42.098Z,57.63
2018-03-01T20:37:09.646Z,57.50
2018-03-01T20:39:37.167Z,57.83
2018-03-01T20:42:04.697Z,57.98
2018-03-01T20:44:32.230Z,57.59
2018-03-01T20:47:00.462Z,57.73
2018-03-01T20:49:27.999Z,58.05
2018-03-01T20:51:55.538Z,57.87
2018-03-01T20:54:23.064Z,57.95
2018-03-01T20:56:50.626Z,57.90
2018-03-01T20:59:18.167Z,58.23
2018-03-01T21:01:45.694Z,58.33
2018-03-01T21:04:13.220Z,58.66
2018-03-01T21:06:40.811Z,58.47
2018-03-01T21:09:08.337Z,58.39
2018-03-01T21:11:35.857Z,58.84
2018-03-01T21:14:03.374Z,59.08
2018-03-01T21:16:30.895Z,59.26
2018-03-01T21:18:58.438Z,58.60
2018-03-01T21:21:25.949Z,58.57
2018-03-01T21:23:53.464Z,59.41
2018-03-01T21:26:20.991Z,58.92
2018-03-01T21:28:48.514Z,59.14
2018-03-01T21:31:16.034Z,59.38
2018-03-01T21:33:43.593Z,59.37
2018-03-01T21:36:11.113Z,59.60
2018-03-01T21:38:38.774Z,59.41
2018-03-01T21:41:06.303Z,59.84
2018-03-01T21:43:33.818Z,59.73
2018-03-01T21:46:01.337Z,59.91
2018-03-01T21:48:28.977Z,60.09
2018-03-01T21:50:56.501Z,60.06
2018-03-01T21:53:24.024Z,60.21
2018-03-01T21:55:51.553Z,60.04
2018-03-01T21:58:19.086Z,59.99
2018-03-01T22:00:46.606Z,60.11
2018-03-01T22:03:14.150Z,60.64
2018-03-01T22:05:41.673Z,60.58
2018-03-01T22:08:09.184Z,60.05
2018-03-01T22:10:36.742Z,60.20
2018-03-01T22:13:04.293Z,60.33
2018-03-01T22:15:31.828Z,60.74
2018-03-01T22:17:59.357Z,60.30
2018-03-01T22:20:26.877Z,60.24
2018-03-01T22:22:54.396Z,60.57
2018-03-01T22:25:21.912Z,60.60
2018-03-01T22:27:49.446Z,60.75
2018-03-01T22:30:16.980Z,60.66
2018-03-01T22:32:44.522Z,60.73
2018-03-01T22:35:12.046Z,60.58
2018-03-01T22:37:39.570Z,60.69
2018-03-01T22:40:07.099Z,60.64
2018-03-01T22:42:34.612Z,60.40
2018-03-01T22:45:02.124Z,60.62
2018-03-01T22:47:29.658Z,60.61
2018-03-01T22:49:57.190Z,60.84
2018-03-01T22:52:24.705Z,60.60
2018-03-01T22:54:52.219Z,60.69
2018-03-01T22:57:19.736Z,60.78
2018-03-01T22:59:47.264Z,60.87
2018-03-01T23:02:14.790Z,60.76
2018-03-01T23:04:42.314Z,60.32
2018-03-01T23:07:09.834Z,60.81
2018-03-01T23:09:37.367Z,60.83
2018-03-01T23:12:04.886Z,60.77
2018-03-01T23:14:32.480Z,60.78
2018-03-01T23:17:00.020Z,60.87
2018-03-01T23:19:27.554Z,60.51
2018-03-01T23:21:55.075Z,60.89
2018-03-01T23:24:22.602Z,60.87
2018-03-01T23:26:50.122Z,60.66
2018-03-01T23:29:17.636Z,60.91
2018-03-01T23:31:45.158Z,60.86
2018-03-01T23:34:12.690Z,60.97
2018-03-01T23:36:40.207Z,60.82
2018-03-01T23:39:07.721Z,61.13
2018-03-01T23:41:35.238Z,61.14
2018-03-01T23:44:02.761Z,61.36
2018-03-01T23:46:30.314Z,61.32
2018-03-01T23:48:57.837Z,61.36
2018-03-01T23:51:25.362Z,61.21
2018-03-01T23:53:52.890Z,60.99
2018-03-01T23:56:20.430Z,61.41
2018-03-01T23:58:47.954Z,61.51
